sensor_id;sensor_type;location;lat;lon;timestamp;P1;durP1;ratioP1;P2;durP2;ratioP2
81508;SDS011;70930;52.412;13.554;2023-11-19T00:00:10;8.90;;;5.32;;
81508;SDS011;70930;52.412;13.554;2023-11-19T00:02:39;8.15;;;4.97;;
81508;SDS011;70930;52.412;13.554;2023-11-19T00:05:04;6.15;;;4.50;;
81508;SDS011;70930;52.412;13.554;2023-11-19T00:09:59;7.28;;;5.20;;
81508;SDS011;70930;52.412;13.554;2023-11-19T00:12:34;7.38;;;4.63;;
81508;SDS011;70930;52.412;13.554;2023-11-19T00:14:59;8.27;;;4.95;;
81508;SDS011;70930;52.412;13.554;2023-11-19T00:17:25;8.35;;;5.13;;
81508;SDS011;70930;52.412;13.554;2023-11-19T00:19:50;6.53;;;4.57;;
81508;SDS011;70930;52.412;13.554;2023-11-19T00:22:16;6.07;;;4.53;;
81508;SDS011;70930;52.412;13.554;2023-11-19T00:24:42;7.40;;;4.60;;
81508;SDS011;70930;52.412;13.554;2023-11-19T00:27:07;7.65;;;4.40;;
81508;SDS011;70930;52.412;13.554;2023-11-19T00:29:33;7.80;;;4.35;;
81508;SDS011;70930;52.412;13.554;2023-11-19T00:31:58;8.40;;;4.60;;
81508;SDS011;70930;52.412;13.554;2023-11-19T00:34:23;8.40;;;4.68;;
81508;SDS011;70930;52.412;13.554;2023-11-19T00:36:49;17.35;;;8.52;;
81508;SDS011;70930;52.412;13.554;2023-11-19T00:39:14;6.50;;;4.88;;
81508;SDS011;70930;52.412;13.554;2023-11-19T00:41:40;12.18;;;5.80;;
81508;SDS011;70930;52.412;13.554;2023-11-19T00:44:06;9.10;;;5.07;;
81508;SDS011;70930;52.412;13.554;2023-11-19T00:46:31;5.68;;;4.50;;
81508;SDS011;70930;52.412;13.554;2023-11-19T00:48:57;7.05;;;4.30;;
81508;SDS011;70930;52.412;13.554;2023-11-19T00:51:24;5.72;;;4.53;;
81508;SDS011;70930;52.412;13.554;2023-11-19T00:53:51;7.70;;;5.07;;
81508;SDS011;70930;52.412;13.554;2023-11-19T00:56:18;6.72;;;4.32;;
81508;SDS011;70930;52.412;13.554;2023-11-19T00:58:44;5.50;;;4.35;;
81508;SDS011;70930;52.412;13.554;2023-11-19T01:01:11;6.57;;;4.25;;
81508;SDS011;70930;52.412;13.554;2023-11-19T01:03:37;7.75;;;4.75;;
81508;SDS011;70930;52.412;13.554;2023-11-19T01:06:02;5.93;;;3.67;;
81508;SDS011;70930;52.412;13.554;2023-11-19T01:08:28;7.38;;;4.57;;
81508;SDS011;70930;52.412;13.554;2023-11-19T01:10:54;6.15;;;4.05;;
81508;SDS011;70930;52.412;13.554;2023-11-19T01:13:19;7.05;;;4.55;;
81508;SDS011;70930;52.412;13.554;2023-11-19T01:15:44;7.82;;;4.82;;
81508;SDS011;70930;52.412;13.554;2023-11-19T01:18:10;6.28;;;4.18;;
81508;SDS011;70930;52.412;13.554;2023-11-19T01:20:36;7.35;;;4.00;;
81508;SDS011;70930;52.412;13.554;2023-11-19T01:23:01;10.40;;;4.60;;
81508;SDS011;70930;52.412;13.554;2023-11-19T01:25:27;6.90;;;4.60;;
81508;SDS011;70930;52.412;13.554;2023-11-19T01:27:52;7.10;;;4.53;;
81508;SDS011;70930;52.412;13.554;2023-11-19T01:30:18;6.03;;;4.38;;
81508;SDS011;70930;52.412;13.554;2023-11-19T01:32:44;5.95;;;4.00;;
81508;SDS011;70930;52.412;13.554;2023-11-19T01:35:10;5.30;;;3.63;;
81508;SDS011;70930;52.412;13.554;2023-11-19T01:37:35;8.13;;;4.65;;
81508;SDS011;70930;52.412;13.554;2023-11-19T01:40:01;7.82;;;4.45;;
81508;SDS011;70930;52.412;13.554;2023-11-19T01:42:29;7.38;;;4.65;;
81508;SDS011;70930;52.412;13.554;2023-11-19T01:44:57;7.57;;;4.18;;
81508;SDS011;70930;52.412;13.554;2023-11-19T01:47:24;6.88;;;3.90;;
81508;SDS011;70930;52.412;13.554;2023-11-19T01:49:50;6.28;;;4.13;;
81508;SDS011;70930;52.412;13.554;2023-11-19T01:52:16;5.57;;;4.00;;
81508;SDS011;70930;52.412;13.554;2023-11-19T01:54:43;6.97;;;4.00;;
81508;SDS011;70930;52.412;13.554;2023-11-19T01:57:08;6.43;;;4.22;;
81508;SDS011;70930;52.412;13.554;2023-11-19T01:59:34;7.13;;;4.07;;
81508;SDS011;70930;52.412;13.554;2023-11-19T02:01:59;6.97;;;4.25;;
81508;SDS011;70930;52.412;13.554;2023-11-19T02:04:25;5.90;;;4.10;;
81508;SDS011;70930;52.412;13.554;2023-11-19T02:06:51;7.20;;;4.38;;
81508;SDS011;70930;52.412;13.554;2023-11-19T02:09:19;5.78;;;4.53;;
81508;SDS011;70930;52.412;13.554;2023-11-19T02:11:45;7.63;;;4.70;;
81508;SDS011;70930;52.412;13.554;2023-11-19T02:14:14;6.10;;;4.20;;
81508;SDS011;70930;52.412;13.554;2023-11-19T02:16:40;5.55;;;3.80;;
81508;SDS011;70930;52.412;13.554;2023-11-19T02:19:05;8.15;;;4.45;;
81508;SDS011;70930;52.412;13.554;2023-11-19T02:21:31;7.53;;;4.70;;
81508;SDS011;70930;52.412;13.554;2023-11-19T02:23:56;9.77;;;5.45;;
81508;SDS011;70930;52.412;13.554;2023-11-19T02:28:47;7.67;;;3.90;;
81508;SDS011;70930;52.412;13.554;2023-11-19T02:31:13;6.40;;;4.00;;
81508;SDS011;70930;52.412;13.554;2023-11-19T02:33:39;6.30;;;3.67;;
81508;SDS011;70930;52.412;13.554;2023-11-19T02:36:05;5.20;;;4.07;;
81508;SDS011;70930;52.412;13.554;2023-11-19T02:38:32;7.15;;;3.95;;
81508;SDS011;70930;52.412;13.554;2023-11-19T02:40:58;6.70;;;4.57;;
81508;SDS011;70930;52.412;13.554;2023-11-19T02:43:23;6.07;;;3.85;;
81508;SDS011;70930;52.412;13.554;2023-11-19T02:45:48;6.28;;;3.90;;
81508;SDS011;70930;52.412;13.554;2023-11-19T02:48:14;5.95;;;3.67;;
81508;SDS011;70930;52.412;13.554;2023-11-19T02:50:41;5.70;;;3.67;;
81508;SDS011;70930;52.412;13.554;2023-11-19T02:53:09;5.55;;;4.03;;
81508;SDS011;70930;52.412;13.554;2023-11-19T02:55:35;5.65;;;3.30;;
81508;SDS011;70930;52.412;13.554;2023-11-19T02:58:03;6.20;;;3.50;;
81508;SDS011;70930;52.412;13.554;2023-11-19T03:00:44;7.18;;;3.88;;
81508;SDS011;70930;52.412;13.554;2023-11-19T03:03:17;6.30;;;4.10;;
81508;SDS011;70930;52.412;13.554;2023-11-19T03:05:45;5.88;;;4.07;;
81508;SDS011;70930;52.412;13.554;2023-11-19T03:08:12;5.25;;;3.70;;
81508;SDS011;70930;52.412;13.554;2023-11-19T03:10:37;6.45;;;3.33;;
81508;SDS011;70930;52.412;13.554;2023-11-19T03:13:03;7.20;;;4.43;;
81508;SDS011;70930;52.412;13.554;2023-11-19T03:15:29;4.65;;;3.40;;
81508;SDS011;70930;52.412;13.554;2023-11-19T03:17:55;5.72;;;3.30;;
81508;SDS011;70930;52.412;13.554;2023-11-19T03:20:20;5.90;;;3.22;;
81508;SDS011;70930;52.412;13.554;2023-11-19T03:22:46;5.55;;;3.70;;
81508;SDS011;70930;52.412;13.554;2023-11-19T03:25:11;5.15;;;3.67;;
81508;SDS011;70930;52.412;13.554;2023-11-19T03:27:38;6.80;;;3.60;;
81508;SDS011;70930;52.412;13.554;2023-11-19T03:30:05;7.10;;;3.75;;
81508;SDS011;70930;52.412;13.554;2023-11-19T03:32:34;6.32;;;3.50;;
81508;SDS011;70930;52.412;13.554;2023-11-19T03:35:00;6.38;;;3.50;;
81508;SDS011;70930;52.412;13.554;2023-11-19T03:37:26;4.95;;;3.55;;
81508;SDS011;70930;52.412;13.554;2023-11-19T03:39:53;5.40;;;3.58;;
81508;SDS011;70930;52.412;13.554;2023-11-19T03:42:19;5.55;;;3.95;;
81508;SDS011;70930;52.412;13.554;2023-11-19T03:44:45;5.88;;;3.78;;
81508;SDS011;70930;52.412;13.554;2023-11-19T03:47:11;4.82;;;3.50;;
81508;SDS011;70930;52.412;13.554;2023-11-19T03:49:36;4.95;;;3.10;;
81508;SDS011;70930;52.412;13.554;2023-11-19T03:52:01;6.45;;;3.80;;
81508;SDS011;70930;52.412;13.554;2023-11-19T03:54:27;6.85;;;3.97;;
81508;SDS011;70930;52.412;13.554;2023-11-19T03:56:52;7.45;;;3.78;;
81508;SDS011;70930;52.412;13.554;2023-11-19T03:59:18;7.93;;;4.43;;
81508;SDS011;70930;52.412;13.554;2023-11-19T04:01:45;6.00;;;3.90;;
81508;SDS011;70930;52.412;13.554;2023-11-19T04:04:11;5.43;;;3.88;;
81508;SDS011;70930;52.412;13.554;2023-11-19T04:06:36;8.38;;;5.28;;
81508;SDS011;70930;52.412;13.554;2023-11-19T04:09:01;7.72;;;4.40;;
81508;SDS011;70930;52.412;13.554;2023-11-19T04:11:27;9.25;;;4.90;;
81508;SDS011;70930;52.412;13.554;2023-11-19T04:13:53;6.63;;;4.45;;
81508;SDS011;70930;52.412;13.554;2023-11-19T04:16:18;5.93;;;4.32;;
81508;SDS011;70930;52.412;13.554;2023-11-19T04:18:43;8.27;;;4.70;;
81508;SDS011;70930;52.412;13.554;2023-11-19T04:21:09;9.52;;;5.47;;
81508;SDS011;70930;52.412;13.554;2023-11-19T04:23:34;7.07;;;5.00;;
81508;SDS011;70930;52.412;13.554;2023-11-19T04:26:02;8.55;;;5.53;;
81508;SDS011;70930;52.412;13.554;2023-11-19T04:28:29;8.82;;;5.63;;
81508;SDS011;70930;52.412;13.554;2023-11-19T04:30:55;7.13;;;4.70;;
81508;SDS011;70930;52.412;13.554;2023-11-19T04:33:21;8.38;;;5.05;;
81508;SDS011;70930;52.412;13.554;2023-11-19T04:35:46;11.48;;;6.45;;
81508;SDS011;70930;52.412;13.554;2023-11-19T04:38:11;8.70;;;5.72;;
81508;SDS011;70930;52.412;13.554;2023-11-19T04:40:37;11.38;;;5.88;;
81508;SDS011;70930;52.412;13.554;2023-11-19T04:43:02;9.70;;;5.68;;
81508;SDS011;70930;52.412;13.554;2023-11-19T04:45:27;11.63;;;5.90;;
81508;SDS011;70930;52.412;13.554;2023-11-19T04:47:53;11.65;;;6.03;;
81508;SDS011;70930;52.412;13.554;2023-11-19T04:50:18;8.10;;;4.97;;
81508;SDS011;70930;52.412;13.554;2023-11-19T04:52:43;9.25;;;5.57;;
81508;SDS011;70930;52.412;13.554;2023-11-19T04:55:10;9.07;;;5.35;;
81508;SDS011;70930;52.412;13.554;2023-11-19T04:57:37;8.82;;;5.93;;
81508;SDS011;70930;52.412;13.554;2023-11-19T05:00:03;10.57;;;6.05;;
81508;SDS011;70930;52.412;13.554;2023-11-19T05:02:30;7.40;;;5.25;;
81508;SDS011;70930;52.412;13.554;2023-11-19T05:04:56;11.55;;;5.40;;
81508;SDS011;70930;52.412;13.554;2023-11-19T05:07:22;9.57;;;5.90;;
81508;SDS011;70930;52.412;13.554;2023-11-19T05:09:47;11.23;;;6.82;;
81508;SDS011;70930;52.412;13.554;2023-11-19T05:12:12;11.57;;;6.75;;
81508;SDS011;70930;52.412;13.554;2023-11-19T05:14:38;10.25;;;6.03;;
81508;SDS011;70930;52.412;13.554;2023-11-19T05:17:03;10.98;;;6.65;;
81508;SDS011;70930;52.412;13.554;2023-11-19T05:19:29;12.75;;;7.72;;
81508;SDS011;70930;52.412;13.554;2023-11-19T05:21:54;10.60;;;5.97;;
81508;SDS011;70930;52.412;13.554;2023-11-19T05:24:19;10.48;;;5.97;;
81508;SDS011;70930;52.412;13.554;2023-11-19T05:26:45;12.43;;;7.10;;
81508;SDS011;70930;52.412;13.554;2023-11-19T05:29:10;9.57;;;5.53;;
81508;SDS011;70930;52.412;13.554;2023-11-19T05:31:35;9.30;;;4.93;;
81508;SDS011;70930;52.412;13.554;2023-11-19T05:34:01;11.15;;;6.43;;
81508;SDS011;70930;52.412;13.554;2023-11-19T05:36:26;25.00;;;9.82;;
81508;SDS011;70930;52.412;13.554;2023-11-19T05:38:52;9.25;;;5.80;;
81508;SDS011;70930;52.412;13.554;2023-11-19T05:41:18;10.50;;;6.75;;
81508;SDS011;70930;52.412;13.554;2023-11-19T05:43:43;9.40;;;6.22;;
81508;SDS011;70930;52.412;13.554;2023-11-19T05:46:08;12.95;;;7.13;;
81508;SDS011;70930;52.412;13.554;2023-11-19T05:48:34;8.10;;;5.32;;
81508;SDS011;70930;52.412;13.554;2023-11-19T05:50:59;9.10;;;5.55;;
81508;SDS011;70930;52.412;13.554;2023-11-19T05:53:25;11.40;;;5.47;;
81508;SDS011;70930;52.412;13.554;2023-11-19T05:55:50;8.55;;;5.35;;
81508;SDS011;70930;52.412;13.554;2023-11-19T05:58:26;8.88;;;5.93;;
81508;SDS011;70930;52.412;13.554;2023-11-19T06:00:57;9.75;;;5.65;;
81508;SDS011;70930;52.412;13.554;2023-11-19T06:03:24;11.63;;;6.78;;
81508;SDS011;70930;52.412;13.554;2023-11-19T06:05:50;8.65;;;6.03;;
81508;SDS011;70930;52.412;13.554;2023-11-19T06:08:15;11.05;;;6.68;;
81508;SDS011;70930;52.412;13.554;2023-11-19T06:10:46;12.80;;;5.78;;
81508;SDS011;70930;52.412;13.554;2023-11-19T06:13:12;8.55;;;5.55;;
81508;SDS011;70930;52.412;13.554;2023-11-19T06:15:40;10.80;;;6.13;;
81508;SDS011;70930;52.412;13.554;2023-11-19T06:18:08;11.05;;;6.40;;
81508;SDS011;70930;52.412;13.554;2023-11-19T06:20:35;10.10;;;5.25;;
81508;SDS011;70930;52.412;13.554;2023-11-19T06:23:00;8.65;;;5.95;;
81508;SDS011;70930;52.412;13.554;2023-11-19T06:25:25;9.43;;;5.65;;
81508;SDS011;70930;52.412;13.554;2023-11-19T06:27:51;11.55;;;7.13;;
81508;SDS011;70930;52.412;13.554;2023-11-19T06:30:18;8.43;;;5.72;;
81508;SDS011;70930;52.412;13.554;2023-11-19T06:32:44;9.70;;;6.45;;
81508;SDS011;70930;52.412;13.554;2023-11-19T06:35:09;13.98;;;7.57;;
81508;SDS011;70930;52.412;13.554;2023-11-19T06:37:35;11.40;;;7.30;;
81508;SDS011;70930;52.412;13.554;2023-11-19T06:40:03;9.88;;;6.22;;
81508;SDS011;70930;52.412;13.554;2023-11-19T06:42:30;12.57;;;6.43;;
81508;SDS011;70930;52.412;13.554;2023-11-19T06:44:55;9.75;;;5.90;;
81508;SDS011;70930;52.412;13.554;2023-11-19T06:47:22;10.35;;;6.32;;
81508;SDS011;70930;52.412;13.554;2023-11-19T06:49:47;9.98;;;6.18;;
81508;SDS011;70930;52.412;13.554;2023-11-19T06:52:12;10.43;;;6.18;;
81508;SDS011;70930;52.412;13.554;2023-11-19T06:54:39;6.05;;;4.43;;
81508;SDS011;70930;52.412;13.554;2023-11-19T06:57:04;9.63;;;5.50;;
81508;SDS011;70930;52.412;13.554;2023-11-19T06:59:30;8.60;;;4.95;;
81508;SDS011;70930;52.412;13.554;2023-11-19T07:01:55;9.00;;;6.13;;
81508;SDS011;70930;52.412;13.554;2023-11-19T07:04:21;6.78;;;3.90;;
81508;SDS011;70930;52.412;13.554;2023-11-19T07:06:46;7.07;;;4.70;;
81508;SDS011;70930;52.412;13.554;2023-11-19T07:09:13;9.02;;;5.63;;
81508;SDS011;70930;52.412;13.554;2023-11-19T07:11:39;6.57;;;4.35;;
81508;SDS011;70930;52.412;13.554;2023-11-19T07:14:05;7.95;;;5.32;;
81508;SDS011;70930;52.412;13.554;2023-11-19T07:16:34;6.90;;;4.55;;
81508;SDS011;70930;52.412;13.554;2023-11-19T07:19:03;7.75;;;4.75;;
81508;SDS011;70930;52.412;13.554;2023-11-19T07:21:28;6.82;;;3.85;;
81508;SDS011;70930;52.412;13.554;2023-11-19T07:23:54;5.70;;;4.18;;
81508;SDS011;70930;52.412;13.554;2023-11-19T07:26:21;9.43;;;6.30;;
81508;SDS011;70930;52.412;13.554;2023-11-19T07:28:47;9.55;;;5.53;;
81508;SDS011;70930;52.412;13.554;2023-11-19T07:31:13;7.72;;;4.88;;
81508;SDS011;70930;52.412;13.554;2023-11-19T07:33:42;8.00;;;5.28;;
81508;SDS011;70930;52.412;13.554;2023-11-19T07:36:10;6.78;;;4.40;;
81508;SDS011;70930;52.412;13.554;2023-11-19T07:38:36;7.68;;;5.13;;
81508;SDS011;70930;52.412;13.554;2023-11-19T07:41:02;8.60;;;5.65;;
81508;SDS011;70930;52.412;13.554;2023-11-19T07:43:27;7.47;;;4.82;;
81508;SDS011;70930;52.412;13.554;2023-11-19T07:45:53;9.48;;;6.05;;
81508;SDS011;70930;52.412;13.554;2023-11-19T07:48:18;9.13;;;4.53;;
81508;SDS011;70930;52.412;13.554;2023-11-19T07:50:48;6.20;;;4.30;;
81508;SDS011;70930;52.412;13.554;2023-11-19T07:53:15;5.82;;;3.63;;
81508;SDS011;70930;52.412;13.554;2023-11-19T07:55:41;8.48;;;4.72;;
81508;SDS011;70930;52.412;13.554;2023-11-19T07:58:06;5.75;;;4.13;;
81508;SDS011;70930;52.412;13.554;2023-11-19T08:00:31;7.40;;;3.60;;
81508;SDS011;70930;52.412;13.554;2023-11-19T08:02:57;9.02;;;4.65;;
81508;SDS011;70930;52.412;13.554;2023-11-19T08:05:22;4.45;;;3.33;;
81508;SDS011;70930;52.412;13.554;2023-11-19T08:07:49;7.50;;;5.15;;
81508;SDS011;70930;52.412;13.554;2023-11-19T08:10:15;6.35;;;3.55;;
81508;SDS011;70930;52.412;13.554;2023-11-19T08:12:40;9.98;;;5.00;;
81508;SDS011;70930;52.412;13.554;2023-11-19T08:15:06;7.75;;;5.05;;
81508;SDS011;70930;52.412;13.554;2023-11-19T08:17:32;5.88;;;4.00;;
81508;SDS011;70930;52.412;13.554;2023-11-19T08:19:57;8.15;;;4.70;;
81508;SDS011;70930;52.412;13.554;2023-11-19T08:22:25;7.03;;;4.03;;
81508;SDS011;70930;52.412;13.554;2023-11-19T08:24:50;6.22;;;4.32;;
81508;SDS011;70930;52.412;13.554;2023-11-19T08:27:16;5.68;;;3.25;;
81508;SDS011;70930;52.412;13.554;2023-11-19T08:29:41;5.50;;;3.35;;
81508;SDS011;70930;52.412;13.554;2023-11-19T08:32:06;6.47;;;4.13;;
81508;SDS011;70930;52.412;13.554;2023-11-19T08:34:32;5.72;;;3.80;;
81508;SDS011;70930;52.412;13.554;2023-11-19T08:36:57;5.97;;;4.10;;
81508;SDS011;70930;52.412;13.554;2023-11-19T08:39:23;5.32;;;3.90;;
81508;SDS011;70930;52.412;13.554;2023-11-19T08:41:48;4.88;;;3.63;;
81508;SDS011;70930;52.412;13.554;2023-11-19T08:44:14;4.22;;;3.20;;
81508;SDS011;70930;52.412;13.554;2023-11-19T08:46:45;7.68;;;4.93;;
81508;SDS011;70930;52.412;13.554;2023-11-19T08:49:12;9.57;;;5.85;;
81508;SDS011;70930;52.412;13.554;2023-11-19T08:51:37;5.43;;;3.65;;
81508;SDS011;70930;52.412;13.554;2023-11-19T08:54:03;6.68;;;4.07;;
81508;SDS011;70930;52.412;13.554;2023-11-19T08:56:28;6.07;;;4.18;;
81508;SDS011;70930;52.412;13.554;2023-11-19T08:58:57;5.00;;;3.40;;
81508;SDS011;70930;52.412;13.554;2023-11-19T09:01:23;6.15;;;4.38;;
81508;SDS011;70930;52.412;13.554;2023-11-19T09:03:49;6.13;;;3.97;;
81508;SDS011;70930;52.412;13.554;2023-11-19T09:06:15;5.88;;;3.55;;
81508;SDS011;70930;52.412;13.554;2023-11-19T09:08:41;4.72;;;3.70;;
81508;SDS011;70930;52.412;13.554;2023-11-19T09:11:07;6.72;;;4.20;;
81508;SDS011;70930;52.412;13.554;2023-11-19T09:13:34;4.53;;;3.58;;
81508;SDS011;70930;52.412;13.554;2023-11-19T09:15:59;4.95;;;3.45;;
81508;SDS011;70930;52.412;13.554;2023-11-19T09:18:28;11.40;;;5.47;;
81508;SDS011;70930;52.412;13.554;2023-11-19T09:20:54;5.82;;;4.13;;
81508;SDS011;70930;52.412;13.554;2023-11-19T09:23:19;6.20;;;3.67;;
81508;SDS011;70930;52.412;13.554;2023-11-19T09:25:45;5.18;;;3.42;;
81508;SDS011;70930;52.412;13.554;2023-11-19T09:28:10;6.80;;;3.72;;
81508;SDS011;70930;52.412;13.554;2023-11-19T09:30:35;5.82;;;3.78;;
81508;SDS011;70930;52.412;13.554;2023-11-19T09:33:01;8.15;;;3.95;;
81508;SDS011;70930;52.412;13.554;2023-11-19T09:35:27;3.38;;;2.38;;
81508;SDS011;70930;52.412;13.554;2023-11-19T09:37:52;5.82;;;4.43;;
81508;SDS011;70930;52.412;13.554;2023-11-19T09:40:18;3.92;;;2.70;;
81508;SDS011;70930;52.412;13.554;2023-11-19T09:42:43;4.15;;;2.70;;
81508;SDS011;70930;52.412;13.554;2023-11-19T09:47:40;3.92;;;2.78;;
81508;SDS011;70930;52.412;13.554;2023-11-19T09:50:08;3.35;;;2.13;;
81508;SDS011;70930;52.412;13.554;2023-11-19T09:52:34;3.97;;;2.45;;
81508;SDS011;70930;52.412;13.554;2023-11-19T09:55:00;4.10;;;2.25;;
81508;SDS011;70930;52.412;13.554;2023-11-19T09:57:25;3.90;;;2.20;;
81508;SDS011;70930;52.412;13.554;2023-11-19T09:59:51;3.50;;;2.13;;
81508;SDS011;70930;52.412;13.554;2023-11-19T10:02:18;4.25;;;1.85;;
81508;SDS011;70930;52.412;13.554;2023-11-19T10:04:43;5.18;;;1.90;;
81508;SDS011;70930;52.412;13.554;2023-11-19T10:07:12;3.15;;;1.83;;
81508;SDS011;70930;52.412;13.554;2023-11-19T10:09:37;3.25;;;1.90;;
81508;SDS011;70930;52.412;13.554;2023-11-19T10:12:02;4.10;;;2.05;;
81508;SDS011;70930;52.412;13.554;2023-11-19T10:14:28;3.35;;;2.03;;
81508;SDS011;70930;52.412;13.554;2023-11-19T10:16:56;5.72;;;2.13;;
81508;SDS011;70930;52.412;13.554;2023-11-19T10:19:22;4.65;;;2.40;;
81508;SDS011;70930;52.412;13.554;2023-11-19T10:21:48;6.32;;;2.33;;
81508;SDS011;70930;52.412;13.554;2023-11-19T10:24:13;4.00;;;1.52;;
81508;SDS011;70930;52.412;13.554;2023-11-19T10:26:39;4.38;;;1.67;;
81508;SDS011;70930;52.412;13.554;2023-11-19T10:29:05;5.65;;;2.50;;
81508;SDS011;70930;52.412;13.554;2023-11-19T10:31:31;5.45;;;2.13;;
81508;SDS011;70930;52.412;13.554;2023-11-19T10:33:56;3.55;;;2.00;;
81508;SDS011;70930;52.412;13.554;2023-11-19T10:36:22;4.88;;;1.65;;
81508;SDS011;70930;52.412;13.554;2023-11-19T10:38:55;6.85;;;1.98;;
81508;SDS011;70930;52.412;13.554;2023-11-19T10:43:55;3.38;;;1.20;;
81508;SDS011;70930;52.412;13.554;2023-11-19T10:46:20;5.00;;;1.80;;
81508;SDS011;70930;52.412;13.554;2023-11-19T10:48:48;7.55;;;1.75;;
81508;SDS011;70930;52.412;13.554;2023-11-19T10:51:14;5.72;;;1.48;;
81508;SDS011;70930;52.412;13.554;2023-11-19T10:53:46;3.78;;;1.30;;
81508;SDS011;70930;52.412;13.554;2023-11-19T10:56:13;4.53;;;1.52;;
81508;SDS011;70930;52.412;13.554;2023-11-19T10:58:44;4.25;;;2.30;;
81508;SDS011;70930;52.412;13.554;2023-11-19T11:01:13;3.70;;;1.60;;
81508;SDS011;70930;52.412;13.554;2023-11-19T11:03:43;5.60;;;2.10;;
81508;SDS011;70930;52.412;13.554;2023-11-19T11:06:11;3.78;;;2.08;;
81508;SDS011;70930;52.412;13.554;2023-11-19T11:08:38;4.47;;;1.67;;
81508;SDS011;70930;52.412;13.554;2023-11-19T11:11:50;4.60;;;1.45;;
81508;SDS011;70930;52.412;13.554;2023-11-19T11:13:56;6.85;;;2.03;;
81508;SDS011;70930;52.412;13.554;2023-11-19T11:16:25;6.55;;;1.60;;
81508;SDS011;70930;52.412;13.554;2023-11-19T11:18:50;4.88;;;2.00;;
81508;SDS011;70930;52.412;13.554;2023-11-19T11:21:22;4.03;;;1.73;;
81508;SDS011;70930;52.412;13.554;2023-11-19T11:29:31;6.63;;;2.10;;
81508;SDS011;70930;52.412;13.554;2023-11-19T11:37:39;6.35;;;2.22;;
81508;SDS011;70930;52.412;13.554;2023-11-19T11:40:15;4.85;;;1.80;;
81508;SDS011;70930;52.412;13.554;2023-11-19T11:42:43;6.40;;;2.30;;
81508;SDS011;70930;52.412;13.554;2023-11-19T11:45:10;6.57;;;2.55;;
81508;SDS011;70930;52.412;13.554;2023-11-19T11:55:27;5.72;;;2.20;;
81508;SDS011;70930;52.412;13.554;2023-11-19T11:57:53;7.95;;;2.80;;
81508;SDS011;70930;52.412;13.554;2023-11-19T12:02:59;6.78;;;2.78;;
81508;SDS011;70930;52.412;13.554;2023-11-19T12:05:25;7.40;;;3.08;;
81508;SDS011;70930;52.412;13.554;2023-11-19T12:07:57;16.45;;;3.83;;
81508;SDS011;70930;52.412;13.554;2023-11-19T12:10:26;7.93;;;2.60;;
81508;SDS011;70930;52.412;13.554;2023-11-19T12:12:59;7.82;;;2.33;;
81508;SDS011;70930;52.412;13.554;2023-11-19T12:15:25;13.20;;;2.40;;
81508;SDS011;70930;52.412;13.554;2023-11-19T12:17:52;7.50;;;2.83;;
81508;SDS011;70930;52.412;13.554;2023-11-19T12:20:23;10.02;;;3.50;;
81508;SDS011;70930;52.412;13.554;2023-11-19T12:22:50;8.00;;;2.45;;
81508;SDS011;70930;52.412;13.554;2023-11-19T12:25:17;10.48;;;3.08;;
81508;SDS011;70930;52.412;13.554;2023-11-19T12:27:48;12.02;;;2.53;;
81508;SDS011;70930;52.412;13.554;2023-11-19T12:30:32;8.98;;;3.00;;
81508;SDS011;70930;52.412;13.554;2023-11-19T12:32:58;11.10;;;3.13;;
81508;SDS011;70930;52.412;13.554;2023-11-19T12:35:24;9.98;;;3.58;;
81508;SDS011;70930;52.412;13.554;2023-11-19T12:37:50;12.38;;;3.65;;
81508;SDS011;70930;52.412;13.554;2023-11-19T12:42:45;11.00;;;2.95;;
81508;SDS011;70930;52.412;13.554;2023-11-19T12:45:12;10.88;;;3.30;;
81508;SDS011;70930;52.412;13.554;2023-11-19T12:47:38;9.52;;;3.10;;
81508;SDS011;70930;52.412;13.554;2023-11-19T12:50:05;12.27;;;3.38;;
81508;SDS011;70930;52.412;13.554;2023-11-19T12:52:32;11.60;;;2.85;;
81508;SDS011;70930;52.412;13.554;2023-11-19T12:54:57;13.25;;;3.67;;
81508;SDS011;70930;52.412;13.554;2023-11-19T12:57:39;11.63;;;3.15;;
81508;SDS011;70930;52.412;13.554;2023-11-19T13:00:06;12.52;;;3.30;;
81508;SDS011;70930;52.412;13.554;2023-11-19T13:02:44;16.35;;;3.83;;
81508;SDS011;70930;52.412;13.554;2023-11-19T13:07:47;15.77;;;3.47;;
81508;SDS011;70930;52.412;13.554;2023-11-19T13:10:12;13.43;;;3.58;;
81508;SDS011;70930;52.412;13.554;2023-11-19T13:12:38;15.50;;;3.75;;
81508;SDS011;70930;52.412;13.554;2023-11-19T13:15:04;13.15;;;3.90;;
81508;SDS011;70930;52.412;13.554;2023-11-19T13:17:29;15.77;;;4.68;;
81508;SDS011;70930;52.412;13.554;2023-11-19T13:19:55;12.55;;;3.75;;
81508;SDS011;70930;52.412;13.554;2023-11-19T13:22:22;8.50;;;2.60;;
81508;SDS011;70930;52.412;13.554;2023-11-19T13:24:47;14.30;;;3.25;;
81508;SDS011;70930;52.412;13.554;2023-11-19T13:27:13;11.82;;;3.75;;
81508;SDS011;70930;52.412;13.554;2023-11-19T13:29:38;13.70;;;3.67;;
81508;SDS011;70930;52.412;13.554;2023-11-19T13:32:04;14.35;;;4.13;;
81508;SDS011;70930;52.412;13.554;2023-11-19T13:34:30;9.88;;;3.10;;
81508;SDS011;70930;52.412;13.554;2023-11-19T13:36:56;14.43;;;3.45;;
81508;SDS011;70930;52.412;13.554;2023-11-19T13:39:21;11.60;;;4.25;;
81508;SDS011;70930;52.412;13.554;2023-11-19T13:41:48;13.13;;;3.25;;
81508;SDS011;70930;52.412;13.554;2023-11-19T13:44:15;15.98;;;4.10;;
81508;SDS011;70930;52.412;13.554;2023-11-19T13:46:41;10.90;;;3.05;;
81508;SDS011;70930;52.412;13.554;2023-11-19T13:49:06;15.90;;;3.53;;
81508;SDS011;70930;52.412;13.554;2023-11-19T13:51:32;16.95;;;3.78;;
81508;SDS011;70930;52.412;13.554;2023-11-19T13:53:57;14.18;;;3.30;;
81508;SDS011;70930;52.412;13.554;2023-11-19T13:56:23;14.43;;;3.67;;
81508;SDS011;70930;52.412;13.554;2023-11-19T13:58:48;14.93;;;3.60;;
81508;SDS011;70930;52.412;13.554;2023-11-19T14:01:14;16.40;;;4.10;;
81508;SDS011;70930;52.412;13.554;2023-11-19T14:03:39;12.50;;;3.22;;
81508;SDS011;70930;52.412;13.554;2023-11-19T14:06:05;12.55;;;4.63;;
81508;SDS011;70930;52.412;13.554;2023-11-19T14:08:33;11.85;;;3.67;;
81508;SDS011;70930;52.412;13.554;2023-11-19T14:10:58;14.25;;;4.20;;
81508;SDS011;70930;52.412;13.554;2023-11-19T14:13:24;22.15;;;3.83;;
81508;SDS011;70930;52.412;13.554;2023-11-19T14:15:49;17.60;;;4.10;;
81508;SDS011;70930;52.412;13.554;2023-11-19T14:18:15;13.25;;;3.47;;
81508;SDS011;70930;52.412;13.554;2023-11-19T14:20:40;15.60;;;3.78;;
81508;SDS011;70930;52.412;13.554;2023-11-19T14:23:06;19.17;;;4.28;;
81508;SDS011;70930;52.412;13.554;2023-11-19T14:25:31;15.50;;;4.70;;
81508;SDS011;70930;52.412;13.554;2023-11-19T14:27:56;12.52;;;3.55;;
81508;SDS011;70930;52.412;13.554;2023-11-19T14:30:22;17.50;;;4.35;;
81508;SDS011;70930;52.412;13.554;2023-11-19T14:32:47;16.45;;;5.05;;
81508;SDS011;70930;52.412;13.554;2023-11-19T14:35:13;15.10;;;4.00;;
81508;SDS011;70930;52.412;13.554;2023-11-19T14:37:39;17.63;;;5.32;;
81508;SDS011;70930;52.412;13.554;2023-11-19T14:40:05;14.60;;;5.18;;
81508;SDS011;70930;52.412;13.554;2023-11-19T14:42:33;24.38;;;5.72;;
81508;SDS011;70930;52.412;13.554;2023-11-19T14:44:59;15.60;;;4.90;;
81508;SDS011;70930;52.412;13.554;2023-11-19T14:47:24;22.05;;;4.72;;
81508;SDS011;70930;52.412;13.554;2023-11-19T14:49:50;17.50;;;4.03;;
81508;SDS011;70930;52.412;13.554;2023-11-19T14:52:15;18.42;;;6.00;;
81508;SDS011;70930;52.412;13.554;2023-11-19T14:54:41;18.08;;;5.28;;
81508;SDS011;70930;52.412;13.554;2023-11-19T14:57:06;10.32;;;3.35;;
81508;SDS011;70930;52.412;13.554;2023-11-19T14:59:35;23.25;;;4.82;;
81508;SDS011;70930;52.412;13.554;2023-11-19T15:02:01;18.27;;;3.92;;